createdAt,value
2022-07-31T00:00:32.061Z,24.29
2022-07-31T00:03:02.570Z,24.35
2022-07-31T00:05:31.180Z,24.16
2022-07-31T00:08:00.875Z,23.87
2022-07-31T00:10:29.169Z,23.52
2022-07-31T00:12:59.155Z,23.33
2022-07-31T00:15:26.632Z,23.14
2022-07-31T00:17:54.104Z,23.55
2022-07-31T00:20:21.752Z,24.07
2022-07-31T00:22:49.303Z,24.12
2022-07-31T00:25:16.681Z,23.93
2022-07-31T00:27:44.008Z,23.70
2022-07-31T00:30:13.373Z,23.49
2022-07-31T00:32:42.020Z,23.27
2022-07-31T00:35:10.543Z,23.07
2022-07-31T00:37:41.670Z,23.56
2022-07-31T00:40:10.622Z,24.14
2022-07-31T00:42:40.617Z,24.21
2022-07-31T00:45:08.790Z,24.03
2022-07-31T00:47:36.868Z,23.79
2022-07-31T00:50:07.513Z,23.55
2022-07-31T00:52:35.236Z,23.34
2022-07-31T00:55:05.816Z,23.15
2022-07-31T00:57:33.394Z,23.57
2022-07-31T01:00:01.342Z,24.12
2022-07-31T01:02:29.654Z,24.16
2022-07-31T01:04:56.666Z,23.97
2022-07-31T01:07:26.353Z,23.68
2022-07-31T01:09:53.776Z,23.42
2022-07-31T01:12:32.136Z,23.15
2022-07-31T01:15:04.571Z,22.90
2022-07-31T01:17:32.043Z,23.33
2022-07-31T01:20:00.151Z,23.78
2022-07-31T01:22:52.700Z,23.80
2022-07-31T01:26:10.728Z,23.54
2022-07-31T01:28:52.917Z,23.15
2022-07-31T01:31:41.872Z,22.86
2022-07-31T01:34:13.229Z,22.59
2022-07-31T01:36:52.298Z,23.06
2022-07-31T01:39:52.694Z,23.49
2022-07-31T01:42:20.154Z,23.48
2022-07-31T01:44:53.229Z,23.30
2022-07-31T01:47:29.903Z,23.01
2022-07-31T01:49:57.282Z,22.72
2022-07-31T01:52:26.041Z,22.51
2022-07-31T01:54:59.515Z,22.32
2022-07-31T01:57:26.714Z,22.81
2022-07-31T01:59:59.164Z,23.37
2022-07-31T02:02:40.427Z,23.41
2022-07-31T02:05:10.635Z,23.20
2022-07-31T02:07:40.575Z,22.93
2022-07-31T02:10:12.142Z,22.68
2022-07-31T02:12:39.379Z,22.47
2022-07-31T02:15:11.811Z,22.29
2022-07-31T02:17:41.082Z,22.79
2022-07-31T02:20:28.007Z,23.33
2022-07-31T02:22:58.466Z,23.32
2022-07-31T02:25:30.871Z,23.14
2022-07-31T02:28:27.598Z,22.86
2022-07-31T02:30:58.520Z,22.56
2022-07-31T02:33:32.918Z,22.35
2022-07-31T02:36:00.364Z,22.79
2022-07-31T02:38:30.041Z,23.31
2022-07-31T02:40:59.982Z,23.34
2022-07-31T02:43:32.755Z,23.13
2022-07-31T02:46:03.669Z,22.87
2022-07-31T02:48:33.244Z,22.63
2022-07-31T02:51:05.272Z,22.40
2022-07-31T02:53:37.668Z,22.77
2022-07-31T02:56:06.095Z,23.28
2022-07-31T02:58:42.055Z,23.29
2022-07-31T03:01:14.658Z,23.06
2022-07-31T03:03:42.459Z,22.81
2022-07-31T03:06:13.874Z,22.56
2022-07-31T03:08:41.540Z,22.34
2022-07-31T03:11:09.285Z,22.17
2022-07-31T03:13:43.715Z,22.66
2022-07-31T03:16:12.000Z,23.19
2022-07-31T03:18:40.215Z,23.22
2022-07-31T03:21:17.516Z,23.03
2022-07-31T03:23:46.393Z,22.74
2022-07-31T03:26:21.375Z,22.47
2022-07-31T03:28:48.968Z,22.26
2022-07-31T03:31:16.460Z,22.62
2022-07-31T03:33:46.782Z,23.18
2022-07-31T03:36:17.888Z,23.25
2022-07-31T03:38:50.242Z,23.07
2022-07-31T03:41:44.368Z,22.78
2022-07-31T03:44:14.893Z,22.53
2022-07-31T03:46:42.644Z,22.32
2022-07-31T03:49:10.146Z,22.72
2022-07-31T03:51:41.145Z,23.25
2022-07-31T03:54:29.883Z,23.29
2022-07-31T03:57:14.908Z,23.08
2022-07-31T03:59:48.271Z,22.85
2022-07-31T04:02:24.551Z,22.61
2022-07-31T04:05:00.619Z,22.40
2022-07-31T04:07:31.354Z,22.90
2022-07-31T04:10:16.167Z,23.42
2022-07-31T04:12:51.019Z,23.44
2022-07-31T04:15:31.268Z,23.17
2022-07-31T04:18:36.561Z,22.86
2022-07-31T04:21:07.449Z,22.54
2022-07-31T04:23:38.399Z,22.33
2022-07-31T04:26:57.589Z,22.19
2022-07-31T04:29:35.318Z,22.93
2022-07-31T04:32:06.277Z,23.29
2022-07-31T04:34:44.059Z,23.19
2022-07-31T04:37:18.903Z,22.94
2022-07-31T04:40:00.347Z,22.65
2022-07-31T04:42:35.571Z,22.40
2022-07-31T04:45:13.336Z,22.21
2022-07-31T04:47:46.937Z,22.74
2022-07-31T04:50:15.013Z,23.25
2022-07-31T04:52:59.527Z,23.28
2022-07-31T04:55:32.046Z,23.10
2022-07-31T04:58:03.511Z,22.88
2022-07-31T05:00:31.362Z,22.64
2022-07-31T05:02:59.185Z,22.41
2022-07-31T05:05:26.656Z,22.82
2022-07-31T05:08:04.308Z,23.38
2022-07-31T05:10:59.559Z,23.41
2022-07-31T05:13:27.916Z,23.13
2022-07-31T05:15:55.157Z,22.86
2022-07-31T05:18:25.445Z,22.64
2022-07-31T05:21:28.527Z,22.47
2022-07-31T05:24:34.701Z,23.29
2022-07-31T05:27:06.442Z,23.63
2022-07-31T05:29:33.943Z,23.58
2022-07-31T05:32:01.558Z,23.38
2022-07-31T05:34:31.899Z,23.16
2022-07-31T05:37:01.676Z,22.96
2022-07-31T05:39:31.565Z,22.79
2022-07-31T05:42:17.210Z,23.35
2022-07-31T05:44:59.858Z,23.84
2022-07-31T05:47:40.250Z,23.82
2022-07-31T05:50:10.095Z,23.60
2022-07-31T05:52:38.271Z,23.38
2022-07-31T05:55:17.915Z,23.10
2022-07-31T05:58:14.819Z,22.89
2022-07-31T06:00:44.904Z,23.45
2022-07-31T06:03:15.605Z,23.91
2022-07-31T06:06:09.096Z,23.87
2022-07-31T06:08:36.655Z,23.63
2022-07-31T06:11:04.616Z,23.36
2022-07-31T06:13:32.228Z,23.10
2022-07-31T06:16:05.369Z,22.87
2022-07-31T06:18:32.836Z,23.28
2022-07-31T06:21:00.146Z,23.81
2022-07-31T06:23:29.666Z,23.88
2022-07-31T06:26:35.109Z,23.63
2022-07-31T06:29:02.481Z,23.41
2022-07-31T06:31:29.939Z,23.19
2022-07-31T06:33:58.327Z,22.98
2022-07-31T06:36:29.942Z,23.42
2022-07-31T06:38:58.180Z,23.92
2022-07-31T06:41:46.756Z,24.00
2022-07-31T06:44:30.229Z,23.76
2022-07-31T06:47:25.543Z,23.49
2022-07-31T06:49:55.947Z,23.28
2022-07-31T06:52:26.774Z,23.09
2022-07-31T06:54:54.448Z,23.56
2022-07-31T06:57:22.014Z,24.09
2022-07-31T06:59:50.122Z,24.15
2022-07-31T07:02:17.378Z,23.97
2022-07-31T07:04:57.403Z,23.72
2022-07-31T07:07:34.597Z,23.45
2022-07-31T07:10:02.234Z,23.28
2022-07-31T07:13:08.977Z,23.87
2022-07-31T07:15:36.567Z,24.25
2022-07-31T07:18:04.684Z,24.23
2022-07-31T07:20:50.439Z,23.96
2022-07-31T07:23:18.796Z,23.72
2022-07-31T07:25:52.738Z,23.55
2022-07-31T07:28:30.120Z,23.44
2022-07-31T07:30:58.694Z,23.98
2022-07-31T07:33:41.022Z,24.52
2022-07-31T07:36:23.124Z,24.63
2022-07-31T07:39:03.544Z,24.51
2022-07-31T07:41:32.339Z,24.31
2022-07-31T07:44:00.020Z,24.07
2022-07-31T07:46:27.697Z,23.87
2022-07-31T07:48:57.742Z,23.81
2022-07-31T07:51:58.929Z,24.51
2022-07-31T07:54:36.648Z,25.27
2022-07-31T07:57:26.845Z,25.39
2022-07-31T08:00:11.006Z,25.24
2022-07-31T08:03:46.840Z,25.01
2022-07-31T08:05:33.311Z,24.80
2022-07-31T08:08:00.804Z,24.63
2022-07-31T08:10:46.666Z,24.53
2022-07-31T08:13:23.177Z,25.19
2022-07-31T08:16:22.763Z,25.68
2022-07-31T08:18:54.836Z,25.62
2022-07-31T08:21:22.728Z,25.47
2022-07-31T08:23:53.313Z,25.25
2022-07-31T08:26:20.666Z,25.06
2022-07-31T08:28:50.586Z,24.89
2022-07-31T08:31:20.254Z,24.72
2022-07-31T08:34:31.722Z,24.60
2022-07-31T08:38:02.770Z,24.57
2022-07-31T08:39:50.560Z,25.30
2022-07-31T08:42:18.232Z,25.79
2022-07-31T08:44:45.689Z,25.82
2022-07-31T08:47:17.379Z,25.67
2022-07-31T08:49:48.576Z,25.44
2022-07-31T08:52:21.377Z,25.24
2022-07-31T08:55:07.868Z,25.04
2022-07-31T08:57:38.124Z,24.90
2022-07-31T09:00:09.867Z,25.37
2022-07-31T09:02:39.224Z,25.93
2022-07-31T09:05:27.377Z,25.99
2022-07-31T09:08:14.830Z,25.78
2022-07-31T09:10:49.417Z,25.50
2022-07-31T09:13:18.239Z,25.21
2022-07-31T09:15:46.659Z,24.95
2022-07-31T09:18:19.001Z,24.69
2022-07-31T09:21:04.517Z,24.47
2022-07-31T09:23:35.158Z,24.92
2022-07-31T09:26:04.013Z,25.33
2022-07-31T09:28:45.049Z,25.28
2022-07-31T09:31:14.032Z,24.99
2022-07-31T09:33:46.010Z,24.66
2022-07-31T09:36:33.043Z,24.33
2022-07-31T09:39:27.074Z,24.01
2022-07-31T09:42:16.329Z,23.84
2022-07-31T09:45:04.775Z,24.55
2022-07-31T09:47:33.515Z,24.91
2022-07-31T09:50:04.396Z,24.86
2022-07-31T09:52:33.014Z,24.62
2022-07-31T09:55:16.249Z,24.36
2022-07-31T09:57:55.781Z,24.11
2022-07-31T10:00:23.278Z,23.87
2022-07-31T10:02:51.513Z,23.72
2022-07-31T10:05:18.733Z,24.21
2022-07-31T10:07:46.204Z,24.80
2022-07-31T10:10:18.537Z,24.86
2022-07-31T10:13:07.008Z,24.68
2022-07-31T10:15:36.147Z,24.50
2022-07-31T10:18:35.906Z,24.33
2022-07-31T10:21:40.286Z,24.23
2022-07-31T10:24:14.080Z,24.24
2022-07-31T10:27:10.756Z,24.89
2022-07-31T10:29:32.913Z,25.58
2022-07-31T10:32:02.211Z,25.68
2022-07-31T10:34:30.523Z,25.58
2022-07-31T10:37:32.619Z,25.36
2022-07-31T10:40:34.159Z,25.11
2022-07-31T10:43:18.646Z,24.92
2022-07-31T10:45:55.953Z,24.85
2022-07-31T10:48:52.794Z,25.65
2022-07-31T10:51:50.221Z,26.27
2022-07-31T10:54:44.529Z,26.37
2022-07-31T10:57:35.102Z,26.32
2022-07-31T11:00:45.667Z,26.32
2022-07-31T11:03:22.121Z,26.35
2022-07-31T11:06:08.319Z,26.38
2022-07-31T11:08:59.067Z,26.51
2022-07-31T11:11:53.149Z,27.47
2022-07-31T11:14:40.511Z,27.91
2022-07-31T11:18:25.090Z,27.86
2022-07-31T11:20:39.951Z,27.74
2022-07-31T11:23:08.559Z,27.57
2022-07-31T11:25:36.815Z,27.39
2022-07-31T11:28:11.640Z,27.29
2022-07-31T11:30:53.128Z,27.28
2022-07-31T11:33:41.551Z,27.38
2022-07-31T11:36:24.729Z,27.68
2022-07-31T11:38:54.230Z,28.00
2022-07-31T11:41:22.821Z,28.43
2022-07-31T11:43:51.783Z,29.27
2022-07-31T11:46:28.981Z,29.91
2022-07-31T11:48:56.129Z,30.18
2022-07-31T11:51:23.596Z,30.17
2022-07-31T11:53:57.135Z,29.90
2022-07-31T11:56:26.187Z,29.68
2022-07-31T11:58:54.975Z,29.49
2022-07-31T12:01:29.540Z,29.33
2022-07-31T12:03:57.588Z,29.22
2022-07-31T12:06:36.636Z,29.03
2022-07-31T12:09:04.105Z,28.85
2022-07-31T12:11:31.139Z,28.56
2022-07-31T12:13:59.577Z,28.32
2022-07-31T12:16:26.829Z,28.07
2022-07-31T12:19:00.444Z,27.92
2022-07-31T12:21:35.335Z,27.77
2022-07-31T12:24:02.571Z,27.64
2022-07-31T12:26:30.403Z,27.52
2022-07-31T12:29:01.620Z,27.44
2022-07-31T12:31:29.473Z,27.26
2022-07-31T12:33:56.687Z,27.13
2022-07-31T12:36:24.045Z,27.15
2022-07-31T12:39:01.194Z,27.23
2022-07-31T12:41:29.312Z,27.27
2022-07-31T12:43:56.634Z,27.25
2022-07-31T12:46:37.909Z,27.28
2022-07-31T12:49:06.524Z,27.29
2022-07-31T12:51:44.667Z,27.30
2022-07-31T12:54:17.189Z,27.31
2022-07-31T12:56:44.965Z,27.30
2022-07-31T12:59:12.465Z,27.20
2022-07-31T13:01:40.013Z,27.14
2022-07-31T13:04:07.854Z,27.08
2022-07-31T13:06:45.599Z,27.00
2022-07-31T13:09:12.793Z,26.89
2022-07-31T13:11:46.034Z,26.81
2022-07-31T13:14:16.867Z,26.75
2022-07-31T13:16:44.947Z,26.61
2022-07-31T13:19:13.215Z,26.28
2022-07-31T13:21:49.520Z,25.74
2022-07-31T13:24:18.824Z,25.14
2022-07-31T13:26:47.595Z,24.48
2022-07-31T13:29:14.736Z,24.42
2022-07-31T13:31:42.406Z,24.55
2022-07-31T13:34:09.610Z,24.30
2022-07-31T13:36:38.954Z,23.91
2022-07-31T13:39:07.483Z,23.50
2022-07-31T13:41:35.773Z,23.21
2022-07-31T13:44:03.499Z,23.53
2022-07-31T13:46:31.850Z,23.98
2022-07-31T13:49:02.017Z,23.96
2022-07-31T13:51:30.174Z,23.71
2022-07-31T13:53:57.322Z,23.34
2022-07-31T13:56:38.769Z,23.03
2022-07-31T13:59:13.385Z,22.83
2022-07-31T14:02:13.438Z,23.42
2022-07-31T14:04:32.485Z,23.93
2022-07-31T14:07:06.832Z,23.90
2022-07-31T14:09:35.161Z,23.72
2022-07-31T14:12:04.515Z,23.51
2022-07-31T14:14:33.546Z,23.34
2022-07-31T14:17:01.363Z,23.77
2022-07-31T14:19:28.540Z,24.25
2022-07-31T14:21:57.202Z,24.28
2022-07-31T14:24:27.498Z,24.11
2022-07-31T14:26:54.668Z,23.94
2022-07-31T14:29:21.998Z,23.75
2022-07-31T14:31:49.523Z,23.58
2022-07-31T14:34:16.762Z,24.04
2022-07-31T14:36:44.109Z,24.56
2022-07-31T14:39:11.312Z,24.60
2022-07-31T14:41:38.400Z,24.37
2022-07-31T14:44:05.900Z,24.13
2022-07-31T14:46:33.945Z,23.84
2022-07-31T14:49:02.736Z,23.56
2022-07-31T14:51:30.195Z,23.31
2022-07-31T14:53:57.631Z,23.69
2022-07-31T14:56:45.360Z,24.14
2022-07-31T14:59:12.857Z,24.11
2022-07-31T15:01:40.148Z,23.87
2022-07-31T15:04:07.250Z,23.60
2022-07-31T15:06:48.561Z,23.36
2022-07-31T15:09:22.681Z,23.17
2022-07-31T15:11:59.890Z,23.72
2022-07-31T15:14:30.125Z,24.22
2022-07-31T15:16:57.831Z,24.19
2022-07-31T15:19:25.139Z,23.96
2022-07-31T15:22:10.283Z,23.70
2022-07-31T15:24:45.553Z,23.44
2022-07-31T15:27:22.035Z,23.22
2022-07-31T15:30:00.441Z,23.67
2022-07-31T15:32:38.905Z,24.13
2022-07-31T15:35:08.388Z,24.06
2022-07-31T15:37:39.759Z,23.82
2022-07-31T15:40:09.694Z,23.57
2022-07-31T15:42:40.566Z,23.32
2022-07-31T15:45:12.392Z,23.08
2022-07-31T15:47:40.540Z,23.56
2022-07-31T15:50:10.034Z,24.11
2022-07-31T15:52:37.331Z,24.17
2022-07-31T15:55:05.145Z,23.97
2022-07-31T15:57:32.553Z,23.69
2022-07-31T16:00:00.043Z,23.43
2022-07-31T16:02:27.371Z,23.22
2022-07-31T16:04:56.572Z,23.65
2022-07-31T16:08:30.448Z,24.18
2022-07-31T16:10:17.854Z,24.21
2022-07-31T16:12:47.514Z,23.99
2022-07-31T16:15:16.091Z,23.71
2022-07-31T16:17:43.646Z,23.44
2022-07-31T16:20:25.974Z,23.19
2022-07-31T16:22:55.650Z,23.68
2022-07-31T16:25:23.281Z,24.13
2022-07-31T16:27:50.605Z,24.10
2022-07-31T16:30:17.859Z,23.85
2022-07-31T16:32:45.112Z,23.57
2022-07-31T16:35:12.776Z,23.31
2022-07-31T16:37:50.597Z,23.08
2022-07-31T16:40:30.514Z,23.55
2022-07-31T16:43:03.668Z,24.02
2022-07-31T16:45:51.269Z,23.96
2022-07-31T16:48:19.144Z,23.73
2022-07-31T16:50:52.954Z,23.47
2022-07-31T16:54:10.299Z,23.24
2022-07-31T16:56:10.699Z,23.73
2022-07-31T16:58:38.457Z,24.11
2022-07-31T17:01:53.093Z,24.05
2022-07-31T17:04:00.262Z,23.78
2022-07-31T17:06:34.705Z,23.46
2022-07-31T17:09:16.189Z,23.19
2022-07-31T17:11:46.162Z,23.65
2022-07-31T17:14:13.390Z,24.05
2022-07-31T17:16:44.794Z,23.97
2022-07-31T17:19:14.853Z,23.68
2022-07-31T17:21:44.428Z,23.38
2022-07-31T17:24:15.996Z,23.08
2022-07-31T17:26:44.201Z,22.84
2022-07-31T17:29:12.499Z,23.29
2022-07-31T17:31:39.730Z,23.80
2022-07-31T17:34:09.202Z,23.82
2022-07-31T17:36:37.285Z,23.60
2022-07-31T17:39:05.547Z,23.36
2022-07-31T17:41:32.734Z,23.11
2022-07-31T17:44:01.244Z,22.88
2022-07-31T17:47:07.276Z,23.32
2022-07-31T17:49:19.557Z,23.83
2022-07-31T17:51:59.137Z,23.74
2022-07-31T17:54:28.723Z,23.48
2022-07-31T17:56:56.143Z,23.20
2022-07-31T17:59:23.446Z,22.95
2022-07-31T18:01:52.370Z,23.34
2022-07-31T18:04:21.453Z,23.81
2022-07-31T18:06:54.231Z,23.81
2022-07-31T18:09:23.698Z,23.59
2022-07-31T18:11:51.633Z,23.34
2022-07-31T18:14:18.949Z,23.09
2022-07-31T18:16:46.943Z,22.89
2022-07-31T18:19:14.363Z,23.32
2022-07-31T18:21:41.851Z,23.79
2022-07-31T18:24:09.002Z,23.79
2022-07-31T18:26:37.558Z,23.56
2022-07-31T18:29:05.440Z,23.28
2022-07-31T18:31:35.943Z,23.01
2022-07-31T18:34:06.483Z,22.76
2022-07-31T18:36:35.103Z,23.22
2022-07-31T18:39:02.541Z,23.68
2022-07-31T18:41:29.882Z,23.68
2022-07-31T18:43:57.579Z,23.44
2022-07-31T18:46:25.029Z,23.17
2022-07-31T18:48:55.502Z,22.90
2022-07-31T18:51:26.424Z,22.62
2022-07-31T18:53:54.449Z,23.06
2022-07-31T18:56:25.562Z,23.51
2022-07-31T18:58:53.493Z,23.51
2022-07-31T19:01:20.904Z,23.29
2022-07-31T19:03:48.396Z,23.02
2022-07-31T19:06:16.235Z,22.73
2022-07-31T19:08:43.552Z,22.48
2022-07-31T19:11:12.192Z,22.88
2022-07-31T19:13:39.630Z,23.37
2022-07-31T19:16:06.923Z,23.32
2022-07-31T19:18:34.784Z,23.06
2022-07-31T19:21:22.761Z,22.81
2022-07-31T19:23:49.419Z,22.50
2022-07-31T19:26:16.615Z,22.29
2022-07-31T19:28:43.929Z,22.71
2022-07-31T19:31:11.720Z,23.23
2022-07-31T19:33:39.399Z,23.27
2022-07-31T19:36:07.039Z,23.06
2022-07-31T19:38:38.117Z,22.78
2022-07-31T19:41:05.326Z,22.48
2022-07-31T19:43:33.908Z,22.24
2022-07-31T19:46:11.264Z,22.64
2022-07-31T19:48:45.646Z,23.11
2022-07-31T19:51:13.535Z,23.04
2022-07-31T19:53:41.924Z,22.75
2022-07-31T19:56:10.854Z,22.42
2022-07-31T19:58:38.618Z,22.13
2022-07-31T20:01:06.729Z,21.88
2022-07-31T20:03:36.436Z,22.29
2022-07-31T20:06:04.075Z,22.81
2022-07-31T20:08:33.318Z,22.83
2022-07-31T20:11:04.142Z,22.60
2022-07-31T20:13:32.903Z,22.32
2022-07-31T20:16:00.495Z,22.03
2022-07-31T20:18:28.755Z,21.78
2022-07-31T20:20:57.911Z,22.22
2022-07-31T20:23:26.127Z,22.75
2022-07-31T20:25:53.559Z,22.76
2022-07-31T20:28:21.042Z,22.53
2022-07-31T20:30:48.319Z,22.24
2022-07-31T20:33:15.470Z,21.98
2022-07-31T20:35:47.920Z,21.75
2022-07-31T20:38:22.974Z,22.21
2022-07-31T20:40:53.850Z,22.73
2022-07-31T20:43:23.589Z,22.71
2022-07-31T20:45:51.646Z,22.48
2022-07-31T20:48:19.037Z,22.20
2022-07-31T20:50:48.245Z,21.92
2022-07-31T20:53:16.789Z,21.66
2022-07-31T20:55:49.853Z,22.09
2022-07-31T20:58:21.372Z,22.58
2022-07-31T21:00:49.570Z,22.56
2022-07-31T21:03:17.637Z,22.30
2022-07-31T21:05:45.263Z,22.00
2022-07-31T21:08:12.684Z,21.72
2022-07-31T21:10:39.880Z,21.45
2022-07-31T21:13:08.663Z,21.83
2022-07-31T21:15:43.129Z,22.30
2022-07-31T21:18:15.590Z,22.28
2022-07-31T21:20:50.089Z,22.04
2022-07-31T21:23:23.137Z,21.73
2022-07-31T21:25:51.291Z,21.44
2022-07-31T21:28:18.736Z,21.77
2022-07-31T21:30:46.298Z,22.22
2022-07-31T21:33:13.604Z,22.23
2022-07-31T21:35:41.429Z,21.98
2022-07-31T21:38:12.244Z,21.67
2022-07-31T21:40:40.396Z,21.39
2022-07-31T21:43:08.389Z,21.73
2022-07-31T21:45:50.458Z,22.17
2022-07-31T21:48:25.149Z,22.06
2022-07-31T21:50:52.992Z,21.78
2022-07-31T21:53:20.092Z,21.46
2022-07-31T21:55:47.527Z,21.18
2022-07-31T21:58:14.716Z,21.55
2022-07-31T22:00:41.991Z,22.02
2022-07-31T22:03:09.251Z,22.01
2022-07-31T22:05:57.764Z,21.77
2022-07-31T22:08:25.001Z,21.46
2022-07-31T22:10:52.537Z,21.17
2022-07-31T22:13:19.858Z,20.93
2022-07-31T22:15:58.385Z,21.34
2022-07-31T22:18:29.311Z,21.88
2022-07-31T22:20:57.232Z,21.86
2022-07-31T22:23:25.548Z,21.65
2022-07-31T22:25:52.856Z,21.36
2022-07-31T22:28:21.202Z,21.09
2022-07-31T22:30:49.037Z,21.42
2022-07-31T22:33:16.377Z,21.89
2022-07-31T22:35:43.924Z,21.88
2022-07-31T22:38:14.063Z,21.66
2022-07-31T22:40:42.617Z,21.39
2022-07-31T22:44:10.268Z,21.10
2022-07-31T22:46:00.148Z,20.86
2022-07-31T22:48:27.956Z,21.39
2022-07-31T22:50:55.878Z,21.83
2022-07-31T22:53:24.191Z,21.79
2022-07-31T22:55:53.236Z,21.55
2022-07-31T22:58:20.680Z,21.26
2022-07-31T23:00:48.291Z,20.99
2022-07-31T23:03:15.995Z,21.32
2022-07-31T23:06:02.814Z,21.78
2022-07-31T23:08:30.498Z,21.76
2022-07-31T23:10:57.751Z,21.50
2022-07-31T23:13:25.437Z,21.21
2022-07-31T23:15:52.588Z,20.92
2022-07-31T23:18:20.040Z,20.67
2022-07-31T23:20:47.341Z,21.06
2022-07-31T23:23:14.599Z,21.56
2022-07-31T23:25:41.650Z,21.56
2022-07-31T23:28:08.748Z,21.33
2022-07-31T23:30:35.987Z,21.03
2022-07-31T23:33:03.823Z,20.75
2022-07-31T23:35:31.098Z,20.52
2022-07-31T23:37:58.701Z,20.95
2022-07-31T23:40:25.811Z,21.47
2022-07-31T23:42:53.153Z,21.48
2022-07-31T23:45:20.304Z,21.25
2022-07-31T23:47:48.932Z,20.95
2022-07-31T23:50:16.347Z,20.66
2022-07-31T23:52:43.785Z,20.42
2022-07-31T23:55:11.131Z,20.82
2022-07-31T23:57:38.430Z,21.33
